createdAt,value
2018-12-24T00:00:32.971Z,0
2018-12-24T00:01:33.090Z,0
2018-12-24T00:02:33.316Z,0
2018-12-24T00:03:32.960Z,0
2018-12-24T00:04:33.037Z,0
2018-12-24T00:05:33.296Z,0
2018-12-24T00:06:32.955Z,0
2018-12-24T00:07:32.965Z,0
2018-12-24T00:08:33.010Z,0
2018-12-24T00:09:32.978Z,0
2018-12-24T00:10:33.030Z,0
2018-12-24T00:11:33.338Z,0
2018-12-24T00:12:32.957Z,0
2018-12-24T00:13:32.990Z,0
2018-12-24T00:14:32.983Z,0
2018-12-24T00:15:33.033Z,0
2018-12-24T00:16:33.049Z,0
2018-12-24T00:17:33.380Z,0
2018-12-24T00:18:33.066Z,0
2018-12-24T00:19:33.322Z,0
2018-12-24T00:20:33.006Z,0
2018-12-24T00:21:33.031Z,0
2018-12-24T00:22:56.227Z,0
2018-12-24T00:23:33.450Z,0
2018-12-24T00:24:33.090Z,0
2018-12-24T00:25:33.074Z,0
2018-12-24T00:26:33.075Z,0
2018-12-24T00:27:33.046Z,0
2018-12-24T00:28:34.349Z,0
2018-12-24T00:29:33.394Z,0
2018-12-24T00:30:33.072Z,0
2018-12-24T00:31:33.062Z,0
2018-12-24T00:32:33.375Z,0
2018-12-24T00:33:33.073Z,0
2018-12-24T00:34:33.130Z,0
2018-12-24T00:35:33.103Z,0
2018-12-24T00:36:33.107Z,0
2018-12-24T00:37:33.156Z,0
2018-12-24T00:38:33.454Z,0
2018-12-24T00:39:33.118Z,0
2018-12-24T00:40:33.054Z,0
2018-12-24T00:41:33.371Z,0
2018-12-24T00:42:33.099Z,0
2018-12-24T00:43:33.095Z,0
2018-12-24T00:44:33.411Z,0
2018-12-24T00:45:34.561Z,0
2018-12-24T00:46:45.362Z,0
2018-12-24T00:47:33.416Z,0
2018-12-24T00:48:33.506Z,0
2018-12-24T00:49:33.037Z,0
2018-12-24T00:54:49.921Z,0
2018-12-24T00:55:02.710Z,0
2018-12-24T00:56:02.560Z,0
2018-12-24T00:57:02.590Z,0
2018-12-24T00:58:02.638Z,0
2018-12-24T00:59:02.815Z,0
2018-12-24T01:00:02.783Z,0
2018-12-24T01:01:02.601Z,0
2018-12-24T01:02:02.648Z,0
2018-12-24T01:03:02.577Z,0
2018-12-24T01:04:02.570Z,0
2018-12-24T01:05:02.933Z,0
2018-12-24T01:06:02.866Z,0
2018-12-24T01:07:02.514Z,0
2018-12-24T01:12:24.461Z,0
2018-12-24T01:12:37.313Z,0
2018-12-24T01:13:37.275Z,0
2018-12-24T01:14:37.260Z,0
2018-12-24T01:15:37.296Z,0
2018-12-24T01:16:37.584Z,0
2018-12-24T01:17:37.296Z,0
2018-12-24T01:18:37.252Z,0
2018-12-24T01:19:38.021Z,0
2018-12-24T01:20:37.306Z,0
2018-12-24T01:21:37.386Z,0
2018-12-24T01:22:37.647Z,0
2018-12-24T01:23:37.619Z,0
2018-12-24T01:24:37.353Z,0
2018-12-24T01:25:37.283Z,0
2018-12-24T01:26:37.323Z,0
2018-12-24T01:27:37.325Z,0
2018-12-24T01:28:37.880Z,0
2018-12-24T01:29:37.411Z,0
2018-12-24T01:30:37.368Z,0
2018-12-24T01:31:37.332Z,0
2018-12-24T01:32:37.328Z,0
2018-12-24T01:33:37.316Z,0
2018-12-24T01:34:38.810Z,0
2018-12-24T01:35:37.290Z,0
2018-12-24T01:36:37.337Z,0
2018-12-24T01:37:37.270Z,0
2018-12-24T01:38:37.316Z,0
2018-12-24T01:39:37.402Z,0
2018-12-24T01:40:38.744Z,0
2018-12-24T01:41:37.501Z,0
2018-12-24T01:42:42.350Z,0
2018-12-24T01:43:37.344Z,0
2018-12-24T01:44:37.356Z,0
2018-12-24T01:45:37.441Z,0
2018-12-24T01:46:38.780Z,0
2018-12-24T01:47:37.353Z,0
2018-12-24T01:48:37.384Z,0
2018-12-24T01:49:38.050Z,0
2018-12-24T01:50:37.326Z,0
2018-12-24T01:51:37.302Z,0
2018-12-24T01:52:39.719Z,0
2018-12-24T01:53:37.394Z,0
2018-12-24T01:54:37.396Z,0
2018-12-24T01:55:37.408Z,0
2018-12-24T01:56:37.329Z,0
2018-12-24T01:57:37.361Z,0
2018-12-24T01:58:42.210Z,0
2018-12-24T01:59:37.476Z,0
2018-12-24T02:00:37.289Z,0
2018-12-24T02:01:37.321Z,0
2018-12-24T02:02:37.307Z,0
2018-12-24T02:03:37.627Z,0
2018-12-24T02:04:41.445Z,0
2018-12-24T02:05:37.367Z,0
2018-12-24T02:06:37.376Z,0
2018-12-24T02:07:37.388Z,0
2018-12-24T02:08:38.463Z,0
2018-12-24T02:09:37.414Z,0
2018-12-24T02:10:37.698Z,0
2018-12-24T02:11:37.343Z,0
2018-12-24T02:12:45.094Z,0
2018-12-24T02:13:37.342Z,0
2018-12-24T02:14:37.335Z,0
2018-12-24T02:15:37.320Z,0
2018-12-24T02:16:37.735Z,0
2018-12-24T02:17:37.333Z,0
2018-12-24T02:18:37.367Z,0
2018-12-24T02:19:37.434Z,0
2018-12-24T02:20:37.343Z,0
2018-12-24T02:25:55.414Z,0
2018-12-24T02:26:10.644Z,0
2018-12-24T02:27:10.368Z,0
2018-12-24T02:28:22.312Z,0
2018-12-24T02:29:08.456Z,0
2018-12-24T02:30:08.981Z,0
2018-12-24T02:31:08.417Z,0
2018-12-24T02:32:08.467Z,0
2018-12-24T02:33:08.392Z,0
2018-12-24T02:34:09.120Z,0
2018-12-24T02:35:08.561Z,0
2018-12-24T02:36:08.785Z,0
2018-12-24T02:37:08.475Z,0
2018-12-24T02:38:08.621Z,0
2018-12-24T02:39:08.598Z,0
2018-12-24T02:40:08.813Z,0
2018-12-24T02:41:08.426Z,0
2018-12-24T02:42:08.758Z,0
2018-12-24T02:43:08.757Z,0
2018-12-24T02:44:08.705Z,0
2018-12-24T02:45:08.628Z,0
2018-12-24T02:46:08.547Z,0
2018-12-24T02:47:08.402Z,0
2018-12-24T02:48:08.587Z,0
2018-12-24T02:49:08.835Z,0
2018-12-24T02:50:09.000Z,0
2018-12-24T02:51:08.456Z,0
2018-12-24T02:52:09.379Z,0
2018-12-24T02:53:08.652Z,0
2018-12-24T02:54:08.560Z,0
2018-12-24T02:55:08.951Z,0
2018-12-24T02:56:08.467Z,0
2018-12-24T02:57:08.438Z,0
2018-12-24T02:58:08.546Z,0
2018-12-24T02:59:08.490Z,0
2018-12-24T03:00:09.087Z,0
2018-12-24T03:01:08.950Z,0
2018-12-24T03:02:08.908Z,0
2018-12-24T03:03:08.414Z,0
2018-12-24T03:04:08.374Z,0
2018-12-24T03:05:08.766Z,0
2018-12-24T03:06:09.750Z,0
2018-12-24T03:07:08.812Z,0
2018-12-24T03:08:08.379Z,0
2018-12-24T03:09:08.488Z,0
2018-12-24T03:10:08.628Z,0
2018-12-24T03:11:08.440Z,0
2018-12-24T03:16:26.778Z,0
2018-12-24T03:16:39.465Z,0
2018-12-24T03:17:39.404Z,0
2018-12-24T03:18:39.343Z,0
2018-12-24T03:19:39.351Z,0
2018-12-24T03:20:39.401Z,0
2018-12-24T03:21:39.743Z,0
2018-12-24T03:22:39.430Z,0
2018-12-24T03:23:39.402Z,0
2018-12-24T03:24:39.380Z,0
2018-12-24T03:25:39.371Z,0
2018-12-24T03:26:39.399Z,0
2018-12-24T03:27:39.783Z,0
2018-12-24T03:28:39.736Z,0
2018-12-24T03:29:39.476Z,0
2018-12-24T03:37:07.134Z,0
2018-12-24T03:37:20.221Z,0
2018-12-24T03:38:19.780Z,0
2018-12-24T03:39:19.320Z,0
2018-12-24T03:40:19.769Z,0
2018-12-24T03:41:19.826Z,0
2018-12-24T03:42:20.094Z,0
2018-12-24T03:43:21.862Z,0
2018-12-24T03:44:19.955Z,0
2018-12-24T03:45:19.767Z,0
2018-12-24T03:46:19.758Z,0
2018-12-24T03:47:19.830Z,0
2018-12-24T03:49:19.745Z,0
2018-12-24T03:50:19.835Z,0
2018-12-24T03:51:19.821Z,0
2018-12-24T03:52:19.800Z,0
2018-12-24T03:53:19.801Z,0
2018-12-24T03:55:37.570Z,0
2018-12-24T03:56:19.789Z,0
2018-12-24T03:57:19.844Z,0
2018-12-24T03:58:19.803Z,0
2018-12-24T03:59:19.781Z,0
2018-12-24T04:00:19.802Z,0
2018-12-24T04:01:21.140Z,0
2018-12-24T04:02:19.825Z,0
2018-12-24T04:03:19.820Z,0
2018-12-24T04:04:19.774Z,0
2018-12-24T04:05:19.791Z,0
2018-12-24T04:06:19.840Z,0
2018-12-24T04:07:20.168Z,0
2018-12-24T04:08:19.762Z,0
2018-12-24T04:09:19.833Z,0
2018-12-24T04:10:19.736Z,0
2018-12-24T04:11:19.750Z,0
2018-12-24T04:12:19.777Z,0
2018-12-24T04:13:29.501Z,0
2018-12-24T04:14:19.794Z,0
2018-12-24T04:15:19.780Z,0
2018-12-24T04:16:19.780Z,0
2018-12-24T04:17:19.786Z,0
2018-12-24T04:18:19.751Z,0
2018-12-24T04:19:20.242Z,0
2018-12-24T04:20:19.806Z,0
2018-12-24T04:21:19.760Z,0
2018-12-24T04:22:19.821Z,0
2018-12-24T04:23:19.760Z,0
2018-12-24T04:24:19.762Z,0
2018-12-24T04:25:20.170Z,0
2018-12-24T04:26:19.818Z,0
2018-12-24T04:27:19.813Z,0
2018-12-24T04:28:19.832Z,0
2018-12-24T04:29:19.774Z,0
2018-12-24T04:30:19.809Z,0
2018-12-24T04:31:22.246Z,0
2018-12-24T04:32:19.814Z,0
2018-12-24T04:33:19.813Z,0
2018-12-24T04:34:19.757Z,0
2018-12-24T04:37:27.575Z,0
2018-12-24T04:37:40.179Z,0
2018-12-24T04:38:40.181Z,0
2018-12-24T04:39:40.282Z,0
2018-12-24T04:40:40.163Z,0
2018-12-24T04:41:40.151Z,0
2018-12-24T04:42:40.260Z,0
2018-12-24T04:43:41.189Z,0
2018-12-24T04:46:47.344Z,0
2018-12-24T04:46:59.974Z,0
2018-12-24T04:48:00.365Z,0
2018-12-24T04:48:59.992Z,0
2018-12-24T04:49:59.893Z,0
2018-12-24T04:50:59.931Z,0
2018-12-24T04:51:59.896Z,0
2018-12-24T04:52:59.888Z,0
2018-12-24T04:54:00.418Z,0
2018-12-24T04:54:59.943Z,0
2018-12-24T04:55:59.923Z,0
2018-12-24T04:56:59.939Z,0
2018-12-24T04:57:59.947Z,0
2018-12-24T04:58:59.944Z,0
2018-12-24T05:00:01.361Z,0
2018-12-24T05:01:00.031Z,0
2018-12-24T05:01:59.934Z,0
2018-12-24T05:03:00.064Z,0
2018-12-24T05:03:59.948Z,0
2018-12-24T05:04:59.974Z,0
2018-12-24T05:06:00.370Z,0
2018-12-24T05:06:59.977Z,0
2018-12-24T05:07:59.959Z,0
2018-12-24T05:09:00.069Z,0
2018-12-24T05:09:59.946Z,0
2018-12-24T05:17:27.235Z,0
2018-12-24T05:17:39.854Z,0
2018-12-24T05:18:39.809Z,0
2018-12-24T05:19:39.816Z,0
2018-12-24T05:20:39.851Z,0
2018-12-24T05:21:39.810Z,0
2018-12-24T05:22:42.256Z,0
2018-12-24T05:23:39.806Z,0
2018-12-24T05:24:39.812Z,0
2018-12-24T05:25:39.871Z,0
2018-12-24T05:26:39.809Z,0
2018-12-24T05:27:39.832Z,0
2018-12-24T05:28:42.176Z,0
2018-12-24T05:29:39.965Z,0
2018-12-24T05:30:39.852Z,0
2018-12-24T05:31:39.832Z,0
2018-12-24T05:32:39.840Z,0
2018-12-24T05:33:40.240Z,0
2018-12-24T05:34:42.246Z,0
2018-12-24T05:35:39.885Z,0
2018-12-24T05:36:39.864Z,0
2018-12-24T05:37:39.851Z,0
2018-12-24T05:38:39.911Z,0
2018-12-24T05:39:39.854Z,0
2018-12-24T05:40:42.256Z,0
2018-12-24T05:41:39.864Z,0
2018-12-24T05:42:39.934Z,0
2018-12-24T05:43:39.874Z,0
2018-12-24T05:44:39.869Z,0
2018-12-24T05:45:39.909Z,0
2018-12-24T05:46:40.368Z,0
2018-12-24T05:54:05.746Z,0
2018-12-24T05:54:18.387Z,0
2018-12-24T05:55:18.347Z,0
2018-12-24T05:56:18.392Z,0
2018-12-24T05:57:18.577Z,0
2018-12-24T05:58:18.341Z,0
2018-12-24T05:59:18.752Z,0
2018-12-24T06:00:18.426Z,0
2018-12-24T06:01:18.490Z,0
2018-12-24T06:02:18.404Z,0
2018-12-24T06:03:18.384Z,0
2018-12-24T06:04:18.491Z,0
2018-12-24T06:05:18.785Z,0
2018-12-24T06:06:18.372Z,0
2018-12-24T06:07:18.344Z,0
2018-12-24T06:08:18.370Z,0
2018-12-24T06:09:18.389Z,0
2018-12-24T06:10:18.410Z,0
2018-12-24T06:11:18.710Z,0
2018-12-24T06:12:18.402Z,0
2018-12-24T06:13:18.429Z,0
2018-12-24T06:14:18.575Z,0
2018-12-24T06:15:18.390Z,0
2018-12-24T06:16:18.397Z,0
2018-12-24T06:17:19.796Z,0
2018-12-24T06:18:18.382Z,0
2018-12-24T06:19:18.431Z,0
2018-12-24T06:20:18.429Z,0
2018-12-24T06:21:18.431Z,0
2018-12-24T06:22:18.424Z,0
2018-12-24T06:23:20.725Z,0
2018-12-24T06:24:18.399Z,0
2018-12-24T06:25:18.568Z,0
2018-12-24T06:26:18.417Z,0
2018-12-24T06:27:18.405Z,0
2018-12-24T06:28:18.412Z,0
2018-12-24T06:29:18.842Z,0
2018-12-24T06:30:27.145Z,0
2018-12-24T06:31:18.488Z,0
2018-12-24T06:32:18.414Z,0
2018-12-24T06:33:18.494Z,0
2018-12-24T06:37:47.315Z,0
2018-12-24T06:38:47.294Z,0
2018-12-24T06:39:47.892Z,0
2018-12-24T06:40:47.281Z,0
2018-12-24T06:41:52.366Z,0
2018-12-24T06:42:47.312Z,0
2018-12-24T06:43:47.283Z,0
2018-12-24T06:49:04.797Z,0
2018-12-24T06:49:19.289Z,0
2018-12-24T06:50:22.686Z,0
2018-12-24T06:51:19.079Z,0
2018-12-24T06:52:17.333Z,0
2018-12-24T06:53:20.650Z,0
2018-12-24T06:54:18.188Z,0
2018-12-24T06:55:17.890Z,0
2018-12-24T06:56:17.404Z,0
2018-12-24T06:57:17.555Z,0
2018-12-24T06:58:48.525Z,0
2018-12-24T06:59:23.547Z,0
2018-12-24T07:00:17.524Z,0
2018-12-24T07:01:17.569Z,0
2018-12-24T07:02:17.444Z,0
2018-12-24T07:03:17.520Z,0
2018-12-24T07:08:34.859Z,4
2018-12-24T07:08:47.609Z,4
2018-12-24T07:09:47.611Z,0
2018-12-24T07:10:48.177Z,0
2018-12-24T07:11:47.588Z,0
2018-12-24T07:12:48.007Z,0
2018-12-24T07:13:48.568Z,0
2018-12-24T07:15:02.789Z,4
2018-12-24T07:15:48.083Z,4
2018-12-24T07:16:47.707Z,4
2018-12-24T07:17:54.297Z,4
2018-12-24T07:18:48.844Z,4
2018-12-24T07:19:47.661Z,0
2018-12-24T07:20:47.630Z,4
2018-12-24T07:21:47.627Z,4
2018-12-24T07:22:47.549Z,4
2018-12-24T07:23:47.555Z,4
2018-12-24T07:24:52.012Z,4
2018-12-24T07:25:47.635Z,4
2018-12-24T07:26:48.969Z,4
2018-12-24T07:27:47.678Z,4
2018-12-24T07:28:48.750Z,4
2018-12-24T07:29:48.283Z,4
2018-12-24T07:30:48.791Z,8
2018-12-24T07:31:47.798Z,8
2018-12-24T07:32:47.578Z,8
2018-12-24T07:33:47.643Z,4
2018-12-24T07:34:47.558Z,4
2018-12-24T07:35:47.650Z,4
2018-12-24T07:36:47.882Z,4
2018-12-24T07:37:47.612Z,8
2018-12-24T07:38:47.599Z,8
2018-12-24T07:39:47.656Z,8
2018-12-24T07:40:47.517Z,12
2018-12-24T07:41:49.640Z,8
2018-12-24T07:42:47.854Z,8
2018-12-24T07:43:47.872Z,8
2018-12-24T07:44:47.543Z,8
2018-12-24T07:45:47.688Z,8
2018-12-24T07:46:49.672Z,8
2018-12-24T07:47:47.568Z,8
2018-12-24T07:48:47.891Z,8
2018-12-24T07:49:47.583Z,8
2018-12-24T07:50:47.554Z,8
2018-12-24T07:51:47.546Z,8
2018-12-24T07:52:47.588Z,8
2018-12-24T07:53:47.585Z,12
2018-12-24T07:54:47.925Z,12
2018-12-24T07:55:47.546Z,16
2018-12-24T07:56:47.631Z,16
2018-12-24T07:57:47.559Z,20
2018-12-24T07:58:48.537Z,20
2018-12-24T07:59:47.664Z,24
2018-12-24T08:00:47.911Z,28
2018-12-24T08:01:47.939Z,36
2018-12-24T08:02:47.720Z,32
2018-12-24T08:03:47.647Z,32
2018-12-24T08:04:47.568Z,32
2018-12-24T08:05:48.460Z,32
2018-12-24T08:06:47.952Z,32
2018-12-24T08:07:48.021Z,36
2018-12-24T08:08:49.678Z,44
2018-12-24T08:09:47.670Z,48
2018-12-24T08:10:47.619Z,48
2018-12-24T08:11:47.578Z,44
2018-12-24T08:12:48.363Z,40
2018-12-24T08:13:48.639Z,40
2018-12-24T08:14:53.651Z,36
2018-12-24T08:15:47.589Z,36
2018-12-24T08:16:47.568Z,36
2018-12-24T08:17:47.716Z,36
2018-12-24T08:18:47.554Z,32
2018-12-24T08:19:49.598Z,36
2018-12-24T08:20:47.838Z,44
2018-12-24T08:21:47.589Z,48
2018-12-24T08:22:47.549Z,48
2018-12-24T08:23:48.343Z,44
2018-12-24T08:24:48.606Z,44
2018-12-24T08:25:48.811Z,40
2018-12-24T08:26:47.583Z,40
2018-12-24T08:27:48.640Z,40
2018-12-24T08:28:47.642Z,40
2018-12-24T08:29:47.598Z,44
2018-12-24T08:30:47.621Z,44
2018-12-24T08:31:50.434Z,44
2018-12-24T08:32:47.596Z,40
2018-12-24T08:33:48.437Z,36
2018-12-24T08:34:47.667Z,40
2018-12-24T08:35:47.601Z,40
2018-12-24T08:36:47.639Z,36
2018-12-24T08:37:49.081Z,36
2018-12-24T08:38:47.675Z,40
2018-12-24T08:39:47.659Z,48
2018-12-24T08:40:48.434Z,52
2018-12-24T08:41:48.403Z,52
2018-12-24T08:42:48.585Z,64
2018-12-24T08:43:49.189Z,68
2018-12-24T08:44:50.727Z,68
2018-12-24T08:45:47.675Z,56
2018-12-24T08:46:48.562Z,56
2018-12-24T08:47:49.079Z,60
2018-12-24T08:48:47.752Z,64
2018-12-24T08:49:48.071Z,60
2018-12-24T08:50:47.655Z,60
2018-12-24T08:51:47.623Z,60
2018-12-24T08:52:47.863Z,64
2018-12-24T08:53:48.393Z,56
2018-12-24T08:54:47.586Z,64
2018-12-24T08:55:50.928Z,88
2018-12-24T08:56:49.788Z,88
2018-12-24T08:57:47.675Z,80
2018-12-24T08:58:48.891Z,76
2018-12-24T08:59:47.664Z,84
2018-12-24T09:00:48.320Z,96
2018-12-24T09:01:50.913Z,116
2018-12-24T09:02:47.682Z,132
2018-12-24T09:03:47.675Z,132
2018-12-24T09:04:47.701Z,140
2018-12-24T09:05:49.902Z,152
2018-12-24T09:06:48.721Z,148
2018-12-24T09:07:47.918Z,116
2018-12-24T09:08:47.873Z,96
2018-12-24T09:09:49.689Z,92
2018-12-24T09:10:50.577Z,100
2018-12-24T09:11:48.246Z,92
2018-12-24T09:12:47.724Z,88
2018-12-24T09:13:53.183Z,100
2018-12-24T09:14:56.093Z,132
2018-12-24T09:15:50.543Z,136
2018-12-24T09:16:48.975Z,120
2018-12-24T09:17:49.520Z,124
2018-12-24T09:18:47.671Z,104
2018-12-24T09:19:48.002Z,96
2018-12-24T09:20:57.230Z,92
2018-12-24T09:21:47.653Z,92
2018-12-24T09:22:47.663Z,100
2018-12-24T09:23:47.581Z,100
2018-12-24T09:24:54.763Z,96
2018-12-24T09:25:48.065Z,92
2018-12-24T09:26:48.812Z,112
2018-12-24T09:27:47.845Z,116
2018-12-24T09:28:48.723Z,120
2018-12-24T09:29:47.619Z,112
2018-12-24T09:30:47.593Z,108
2018-12-24T09:31:48.821Z,124
2018-12-24T09:32:47.625Z,136
2018-12-24T09:33:47.644Z,152
2018-12-24T09:34:47.653Z,144
2018-12-24T09:35:47.985Z,144
2018-12-24T09:36:49.152Z,148
2018-12-24T09:37:49.184Z,164
2018-12-24T09:38:48.509Z,200
2018-12-24T09:39:48.449Z,256
2018-12-24T09:40:47.705Z,248
2018-12-24T09:41:47.935Z,204
2018-12-24T09:42:47.710Z,188
2018-12-24T09:47:16.852Z,204
2018-12-24T09:48:16.871Z,228
2018-12-24T09:49:16.730Z,204
2018-12-24T09:50:18.172Z,248
2018-12-24T09:51:17.148Z,204
2018-12-24T09:52:16.709Z,216
2018-12-24T09:53:17.004Z,228
2018-12-24T09:54:16.780Z,184
2018-12-24T09:55:16.746Z,148
2018-12-24T09:56:21.183Z,148
2018-12-24T09:57:17.511Z,152
2018-12-24T09:58:16.764Z,168
2018-12-24T09:59:17.184Z,220
2018-12-24T10:00:16.749Z,252
2018-12-24T10:01:16.752Z,236
2018-12-24T10:02:16.851Z,220
2018-12-24T10:03:16.791Z,188
2018-12-24T10:04:16.694Z,196
2018-12-24T10:05:16.818Z,164
2018-12-24T10:06:18.808Z,164
2018-12-24T10:07:16.807Z,180
2018-12-24T10:08:17.888Z,172
2018-12-24T10:09:17.103Z,148
2018-12-24T10:10:16.828Z,144
2018-12-24T10:11:16.835Z,168
2018-12-24T10:12:18.128Z,164
2018-12-24T10:13:16.747Z,156
2018-12-24T10:14:19.635Z,140
2018-12-24T10:15:18.213Z,132
2018-12-24T10:16:16.765Z,148
2018-12-24T10:17:18.512Z,160
2018-12-24T10:18:17.802Z,144
2018-12-24T10:19:16.888Z,124
2018-12-24T10:24:33.330Z,136
2018-12-24T10:24:47.231Z,120
2018-12-24T10:25:47.432Z,144
2018-12-24T10:26:47.295Z,184
2018-12-24T10:27:47.240Z,192
2018-12-24T10:28:47.529Z,156
2018-12-24T10:29:47.555Z,192
2018-12-24T10:30:47.231Z,168
2018-12-24T10:31:47.225Z,160
2018-12-24T10:32:47.263Z,204
2018-12-24T10:33:47.217Z,180
2018-12-24T10:34:47.490Z,184
2018-12-24T10:35:48.969Z,184
2018-12-24T10:36:47.327Z,176
2018-12-24T10:37:47.380Z,220
2018-12-24T10:38:47.312Z,236
2018-12-24T10:39:47.267Z,240
2018-12-24T10:40:47.246Z,236
2018-12-24T10:41:47.677Z,252
2018-12-24T10:42:47.394Z,268
2018-12-24T10:43:47.269Z,228
2018-12-24T10:44:47.318Z,184
2018-12-24T10:45:49.507Z,176
2018-12-24T10:46:49.819Z,220
2018-12-24T10:47:49.274Z,220
2018-12-24T10:48:49.490Z,212
2018-12-24T10:49:47.405Z,192
2018-12-24T10:50:47.255Z,196
2018-12-24T10:51:47.576Z,208
2018-12-24T10:52:47.322Z,244
2018-12-24T10:53:47.615Z,264
2018-12-24T10:54:47.280Z,232
2018-12-24T10:55:47.289Z,236
2018-12-24T10:56:48.806Z,228
2018-12-24T10:57:51.138Z,216
2018-12-24T10:58:47.446Z,176
2018-12-24T10:59:47.621Z,156
2018-12-24T11:00:48.293Z,196
2018-12-24T11:01:47.847Z,200
2018-12-24T11:02:47.254Z,208
2018-12-24T11:03:47.261Z,208
2018-12-24T11:04:48.321Z,188
2018-12-24T11:05:47.763Z,160
2018-12-24T11:06:48.007Z,164
2018-12-24T11:07:49.192Z,188
2018-12-24T11:08:48.097Z,188
2018-12-24T11:09:47.850Z,188
2018-12-24T11:10:49.665Z,208
2018-12-24T11:12:15.605Z,216
2018-12-24T11:12:59.676Z,204
2018-12-24T11:14:13.812Z,172
2018-12-24T11:15:27.004Z,160
2018-12-24T11:15:50.407Z,160
2018-12-24T11:16:53.703Z,164
2018-12-24T11:17:47.907Z,176
2018-12-24T11:18:47.361Z,176
2018-12-24T11:19:47.300Z,152
2018-12-24T11:20:47.977Z,160
2018-12-24T11:21:47.545Z,168
2018-12-24T11:22:47.463Z,180
2018-12-24T11:23:50.861Z,184
2018-12-24T11:24:47.445Z,176
2018-12-24T11:25:47.313Z,176
2018-12-24T11:26:48.053Z,152
2018-12-24T11:27:47.260Z,132
2018-12-24T11:28:48.186Z,140
2018-12-24T11:29:47.631Z,144
2018-12-24T11:30:47.577Z,152
2018-12-24T11:31:47.281Z,160
2018-12-24T11:32:47.326Z,172
2018-12-24T11:33:47.316Z,176
2018-12-24T11:34:47.288Z,176
2018-12-24T11:35:47.380Z,156
2018-12-24T11:36:48.962Z,156
2018-12-24T11:37:49.252Z,160
2018-12-24T11:38:47.324Z,152
2018-12-24T11:39:47.344Z,148
2018-12-24T11:40:47.494Z,152
2018-12-24T11:41:48.446Z,140
2018-12-24T11:42:47.705Z,136
2018-12-24T11:43:47.962Z,144
2018-12-24T11:44:49.321Z,144
2018-12-24T11:45:47.317Z,132
2018-12-24T11:46:47.315Z,124
2018-12-24T11:47:47.272Z,128
2018-12-24T11:48:47.625Z,128
2018-12-24T11:49:47.411Z,136
2018-12-24T11:50:47.483Z,144
2018-12-24T11:51:48.272Z,148
2018-12-24T11:52:47.280Z,144
2018-12-24T11:53:47.677Z,136
2018-12-24T11:54:47.284Z,132
2018-12-24T11:55:47.313Z,128
2018-12-24T11:56:47.304Z,120
2018-12-24T11:57:47.454Z,120
2018-12-24T11:58:47.343Z,120
2018-12-24T11:59:47.666Z,128
2018-12-24T12:00:47.299Z,132
2018-12-24T12:01:47.409Z,132
2018-12-24T12:02:47.293Z,128
2018-12-24T12:03:47.284Z,124
2018-12-24T12:04:47.297Z,116
2018-12-24T12:05:47.651Z,116
2018-12-24T12:06:47.348Z,112
2018-12-24T12:07:47.355Z,112
2018-12-24T12:08:47.549Z,112
2018-12-24T12:09:47.532Z,108
2018-12-24T12:10:47.397Z,100
2018-12-24T12:11:47.706Z,88
2018-12-24T12:12:47.352Z,80
2018-12-24T12:13:47.340Z,80
2018-12-24T12:14:47.381Z,76
2018-12-24T12:15:51.498Z,80
2018-12-24T12:16:47.314Z,88
2018-12-24T12:17:47.645Z,96
2018-12-24T12:18:47.391Z,96
2018-12-24T12:19:47.421Z,96
2018-12-24T12:20:57.062Z,88
2018-12-24T12:21:47.400Z,80
2018-12-24T12:22:52.939Z,68
2018-12-24T12:23:52.165Z,56
2018-12-24T12:24:48.166Z,48
2018-12-24T12:25:48.078Z,48
2018-12-24T12:26:48.337Z,44
2018-12-24T12:27:48.135Z,52
2018-12-24T12:28:48.023Z,56
2018-12-24T12:29:47.688Z,52
2018-12-24T12:30:47.439Z,56
2018-12-24T12:31:47.419Z,60
2018-12-24T12:32:47.341Z,60
2018-12-24T12:33:47.406Z,68
2018-12-24T12:34:47.366Z,72
2018-12-24T12:35:47.666Z,84
2018-12-24T12:36:47.352Z,96
2018-12-24T12:37:49.138Z,96
2018-12-24T12:38:47.448Z,104
2018-12-24T12:39:47.514Z,108
2018-12-24T12:40:47.335Z,108
2018-12-24T12:41:48.728Z,108
2018-12-24T12:42:47.371Z,100
2018-12-24T12:43:47.412Z,88
2018-12-24T12:44:47.348Z,80
2018-12-24T12:45:54.295Z,68
2018-12-24T12:46:47.431Z,68
2018-12-24T12:47:47.755Z,68
2018-12-24T12:48:47.410Z,68
2018-12-24T12:49:47.411Z,68
2018-12-24T12:50:47.508Z,72
2018-12-24T12:51:47.391Z,68
2018-12-24T12:52:47.476Z,60
2018-12-24T12:53:47.771Z,52
2018-12-24T12:54:47.432Z,52
2018-12-24T12:55:47.397Z,48
2018-12-24T12:56:47.440Z,44
2018-12-24T12:57:47.430Z,40
2018-12-24T12:58:47.488Z,40
2018-12-24T12:59:47.954Z,36
2018-12-24T13:00:47.530Z,32
2018-12-24T13:01:47.373Z,28
2018-12-24T13:02:47.521Z,20
2018-12-24T13:03:47.431Z,20
2018-12-24T13:04:47.434Z,16
2018-12-24T13:05:47.728Z,16
2018-12-24T13:06:47.384Z,16
2018-12-24T13:07:47.597Z,16
2018-12-24T13:08:47.422Z,16
2018-12-24T13:09:47.558Z,20
2018-12-24T13:10:47.398Z,24
2018-12-24T13:11:47.740Z,24
2018-12-24T13:12:47.413Z,28
2018-12-24T13:13:47.532Z,28
2018-12-24T13:14:47.477Z,28
2018-12-24T13:15:47.504Z,28
2018-12-24T13:16:47.392Z,32
2018-12-24T13:17:49.789Z,32
2018-12-24T13:18:47.591Z,28
2018-12-24T13:19:47.490Z,24
2018-12-24T13:20:47.439Z,28
2018-12-24T13:21:47.932Z,28
2018-12-24T13:22:49.787Z,32
2018-12-24T13:23:47.949Z,32
2018-12-24T13:24:47.618Z,32
2018-12-24T13:25:47.483Z,36
2018-12-24T13:26:47.621Z,40
2018-12-24T13:32:04.468Z,40
2018-12-24T13:32:17.155Z,24
2018-12-24T13:33:17.139Z,28
2018-12-24T13:34:17.235Z,28
2018-12-24T13:35:17.185Z,40
2018-12-24T13:36:19.566Z,44
2018-12-24T13:37:17.089Z,48
2018-12-24T13:38:17.078Z,52
2018-12-24T13:39:17.194Z,52
2018-12-24T13:40:17.144Z,52
2018-12-24T13:41:17.098Z,52
2018-12-24T13:42:19.462Z,52
2018-12-24T13:43:17.096Z,52
2018-12-24T13:44:17.130Z,52
2018-12-24T13:45:17.126Z,52
2018-12-24T13:46:17.272Z,52
2018-12-24T13:47:17.139Z,52
2018-12-24T13:48:17.558Z,48
2018-12-24T13:49:17.074Z,48
2018-12-24T13:50:17.120Z,48
2018-12-24T13:51:17.178Z,48
2018-12-24T13:52:17.151Z,40
2018-12-24T13:53:17.154Z,40
2018-12-24T13:54:18.644Z,32
2018-12-24T13:55:17.194Z,36
2018-12-24T13:56:17.134Z,36
2018-12-24T13:57:17.157Z,44
2018-12-24T13:58:17.127Z,56
2018-12-24T13:59:17.175Z,60
2018-12-24T14:00:19.591Z,64
2018-12-24T14:01:17.194Z,68
2018-12-24T14:02:17.078Z,64
2018-12-24T14:03:17.189Z,60
2018-12-24T14:04:17.255Z,56
2018-12-24T14:05:17.246Z,56
2018-12-24T14:06:17.486Z,60
2018-12-24T14:07:18.707Z,56
2018-12-24T14:08:17.125Z,56
2018-12-24T14:09:17.130Z,56
2018-12-24T14:10:17.342Z,52
2018-12-24T14:11:17.141Z,52
2018-12-24T14:12:17.529Z,52
2018-12-24T14:13:17.146Z,52
2018-12-24T14:14:17.268Z,52
2018-12-24T14:15:17.172Z,52
2018-12-24T14:16:25.446Z,48
2018-12-24T14:17:17.195Z,48
2018-12-24T14:18:17.542Z,48
2018-12-24T14:19:17.260Z,44
2018-12-24T14:20:17.200Z,44
2018-12-24T14:21:17.178Z,40
2018-12-24T14:22:17.170Z,44
2018-12-24T14:23:17.231Z,44
2018-12-24T14:24:21.055Z,40
2018-12-24T14:25:17.171Z,40
2018-12-24T14:26:17.826Z,40
2018-12-24T14:32:56.725Z,44
2018-12-24T14:33:58.062Z,36
2018-12-24T14:34:56.686Z,36
2018-12-24T14:35:56.724Z,40
2018-12-24T14:36:57.066Z,32
2018-12-24T14:37:56.746Z,32
2018-12-24T14:38:56.887Z,32
2018-12-24T14:39:56.623Z,32
2018-12-24T14:40:56.658Z,28
2018-12-24T14:41:56.673Z,28
2018-12-24T14:42:56.975Z,28
2018-12-24T14:43:56.648Z,24
2018-12-24T14:44:57.045Z,24
2018-12-24T14:45:56.715Z,20
2018-12-24T14:46:56.656Z,20
2018-12-24T14:47:56.605Z,16
2018-12-24T14:48:56.654Z,16
2018-12-24T14:49:56.673Z,12
2018-12-24T14:50:56.983Z,8
2018-12-24T14:51:56.754Z,8
2018-12-24T14:52:56.765Z,4
2018-12-24T14:53:56.732Z,4
2018-12-24T14:54:56.676Z,4
2018-12-24T14:55:56.728Z,4
2018-12-24T14:56:56.714Z,4
2018-12-24T14:57:56.854Z,4
2018-12-24T14:58:56.750Z,8
2018-12-24T14:59:57.245Z,4
2018-12-24T15:00:56.730Z,4
2018-12-24T15:01:56.722Z,8
2018-12-24T15:02:57.038Z,4
2018-12-24T15:03:56.762Z,4
2018-12-24T15:04:58.817Z,4
2018-12-24T15:05:56.680Z,4
2018-12-24T15:06:57.078Z,4
2018-12-24T15:07:56.719Z,4
2018-12-24T15:08:56.712Z,4
2018-12-24T15:09:56.718Z,4
2018-12-24T15:10:56.745Z,4
2018-12-24T15:11:56.717Z,4
2018-12-24T15:12:57.703Z,4
2018-12-24T15:13:56.781Z,0
2018-12-24T15:14:56.797Z,4
2018-12-24T15:15:56.745Z,4
2018-12-24T15:16:56.833Z,0
2018-12-24T15:17:56.696Z,0
2018-12-24T15:18:57.053Z,4
2018-12-24T15:19:56.701Z,4
2018-12-24T15:20:56.748Z,4
2018-12-24T15:22:26.916Z,4
2018-12-24T15:22:56.692Z,0
2018-12-24T15:23:56.852Z,0
2018-12-24T15:24:57.025Z,0
2018-12-24T15:25:56.842Z,0
2018-12-24T15:26:56.812Z,0
2018-12-24T15:27:56.742Z,0